createdAt,value
2024-03-05T00:00:29.159Z,97784.84
2024-03-05T00:02:55.805Z,97790.94
2024-03-05T00:05:22.470Z,97792.50
2024-03-05T00:07:49.185Z,97782.13
2024-03-05T00:10:15.993Z,97780.00
2024-03-05T00:12:43.156Z,97790.13
2024-03-05T00:15:10.273Z,97783.50
2024-03-05T00:17:38.224Z,97785.38
2024-03-05T00:20:05.517Z,97786.97
2024-03-05T00:22:32.236Z,97793.66
2024-03-05T00:25:00.052Z,97790.19
2024-03-05T00:27:27.263Z,97798.44
2024-03-05T00:29:53.968Z,97792.06
2024-03-05T00:32:20.654Z,97797.69
2024-03-05T00:34:47.336Z,97793.41
2024-03-05T00:37:14.311Z,97796.34
2024-03-05T00:39:40.969Z,97792.34
2024-03-05T00:42:07.702Z,97787.03
2024-03-05T00:44:34.382Z,97786.50
2024-03-05T00:47:01.393Z,97788.88
2024-03-05T00:49:28.204Z,97784.91
2024-03-05T00:51:54.898Z,97783.59
2024-03-05T00:54:21.679Z,97787.84
2024-03-05T00:56:48.319Z,97791.59
2024-03-05T00:59:14.943Z,97782.00
2024-03-05T01:01:41.682Z,97788.13
2024-03-05T01:04:09.398Z,97791.81
2024-03-05T01:06:36.176Z,97789.16
2024-03-05T01:09:03.828Z,97789.16
2024-03-05T01:11:31.110Z,97788.66
2024-03-05T01:13:58.783Z,97793.97
2024-03-05T01:16:27.511Z,97788.66
2024-03-05T01:18:56.666Z,97791.59
2024-03-05T01:21:23.402Z,97789.16
2024-03-05T01:23:50.177Z,97790.78
2024-03-05T01:26:16.951Z,97795.81
2024-03-05T01:28:44.095Z,97802.47
2024-03-05T01:31:10.944Z,97799.53
2024-03-05T01:33:38.818Z,97810.25
2024-03-05T01:36:05.817Z,97794.53
2024-03-05T01:38:32.456Z,97794.00
2024-03-05T01:40:59.104Z,97801.97
2024-03-05T01:43:25.862Z,97801.47
2024-03-05T01:45:52.590Z,97799.84
2024-03-05T01:48:19.271Z,97801.75
2024-03-05T01:50:46.185Z,97799.34
2024-03-05T01:53:13.105Z,97804.13
2024-03-05T01:55:39.790Z,97804.41
2024-03-05T01:58:07.274Z,97807.63
2024-03-05T02:00:34.183Z,97802.28
2024-03-05T02:03:00.822Z,97798.53
2024-03-05T02:05:27.464Z,97798.28
2024-03-05T02:07:57.024Z,97796.16
2024-03-05T02:10:23.772Z,97807.84
2024-03-05T02:12:50.496Z,97796.94
2024-03-05T02:15:17.272Z,97804.94
2024-03-05T02:17:44.001Z,97800.16
2024-03-05T02:20:13.344Z,97804.69
2024-03-05T02:22:40.169Z,97804.69
2024-03-05T02:25:07.076Z,97806.81
2024-03-05T02:27:35.310Z,97806.81
2024-03-05T02:30:03.945Z,97800.72
2024-03-05T02:32:30.750Z,97805.22
2024-03-05T02:34:57.451Z,97806.81
2024-03-05T02:37:24.154Z,97803.88
2024-03-05T02:39:51.046Z,97808.44
2024-03-05T02:42:17.731Z,97811.88
2024-03-05T02:44:44.420Z,97808.69
2024-03-05T02:47:11.394Z,97814.03
2024-03-05T02:49:38.151Z,97811.63
2024-03-05T02:52:05.062Z,97809.47
2024-03-05T02:54:31.750Z,97806.31
2024-03-05T02:56:58.484Z,97815.34
2024-03-05T02:59:25.339Z,97813.47
2024-03-05T03:01:52.108Z,97810.00
2024-03-05T03:04:18.862Z,97812.69
2024-03-05T03:06:45.530Z,97815.88
2024-03-05T03:09:12.263Z,97820.16
2024-03-05T03:11:42.469Z,97819.34
2024-03-05T03:14:10.361Z,97827.59
2024-03-05T03:16:37.113Z,97817.78
2024-03-05T03:19:05.773Z,97835.59
2024-03-05T03:21:32.606Z,97830.53
2024-03-05T03:23:59.214Z,97825.22
2024-03-05T03:26:26.138Z,97833.47
2024-03-05T03:28:53.459Z,97820.16
2024-03-05T03:31:20.557Z,97829.72
2024-03-05T03:33:47.223Z,97820.34
2024-03-05T03:36:24.779Z,97833.75
2024-03-05T03:38:52.175Z,97832.13
2024-03-05T03:41:20.815Z,97836.41
2024-03-05T03:43:48.499Z,97836.69
2024-03-05T03:46:15.438Z,97830.44
2024-03-05T03:48:42.211Z,97838.00
2024-03-05T03:51:09.022Z,97836.69
2024-03-05T03:53:38.721Z,97844.94
2024-03-05T03:56:05.717Z,97843.34
2024-03-05T03:58:32.472Z,97841.72
2024-03-05T04:01:00.410Z,97835.63
2024-03-05T04:03:27.161Z,97837.25
2024-03-05T04:05:54.060Z,97829.78
2024-03-05T04:08:20.666Z,97836.16
2024-03-05T04:10:47.410Z,97832.97
2024-03-05T04:13:14.188Z,97827.13
2024-03-05T04:15:40.987Z,97833.50
2024-03-05T04:18:07.680Z,97830.31
2024-03-05T04:20:34.311Z,97835.13
2024-03-05T04:23:01.146Z,97831.63
2024-03-05T04:25:35.550Z,97836.97
2024-03-05T04:28:11.827Z,97840.44
2024-03-05T04:30:43.461Z,97844.94
2024-03-05T04:33:10.739Z,97838.84
2024-03-05T04:35:38.202Z,97838.84
2024-03-05T04:38:07.984Z,97840.72
2024-03-05T04:40:35.183Z,97845.22
2024-03-05T04:43:01.962Z,97841.78
2024-03-05T04:45:28.655Z,97848.16
2024-03-05T04:47:55.840Z,97845.50
2024-03-05T04:50:22.563Z,97836.19
2024-03-05T04:52:49.292Z,97839.66
2024-03-05T04:55:16.482Z,97843.34
2024-03-05T04:57:43.274Z,97842.59
2024-03-05T05:00:21.314Z,97841.78
2024-03-05T05:02:49.139Z,97842.84
2024-03-05T05:05:16.997Z,97838.84
2024-03-05T05:07:44.798Z,97834.59
2024-03-05T05:10:11.755Z,97833.78
2024-03-05T05:12:39.733Z,97841.22
2024-03-05T05:15:09.504Z,97839.09
2024-03-05T05:17:36.450Z,97834.84
2024-03-05T05:20:05.436Z,97839.41
2024-03-05T05:22:32.209Z,97839.41
2024-03-05T05:24:58.854Z,97839.41
2024-03-05T05:27:25.876Z,97841.25
2024-03-05T05:29:55.834Z,97840.44
2024-03-05T05:32:23.236Z,97837.78
2024-03-05T05:34:49.908Z,97840.72
2024-03-05T05:37:16.884Z,97841.75
2024-03-05T05:39:43.686Z,97846.28
2024-03-05T05:42:13.235Z,97842.84
2024-03-05T05:44:39.882Z,97847.34
2024-03-05T05:47:06.579Z,97845.75
2024-03-05T05:49:33.710Z,97844.94
2024-03-05T05:52:00.826Z,97843.38
2024-03-05T05:54:27.428Z,97847.88
2024-03-05T05:56:54.124Z,97852.41
2024-03-05T05:59:20.784Z,97849.72
2024-03-05T06:01:47.484Z,97845.47
2024-03-05T06:04:16.401Z,97849.22
2024-03-05T06:06:43.235Z,97847.34
2024-03-05T06:09:10.302Z,97857.97
2024-03-05T06:11:40.149Z,97852.66
2024-03-05T06:14:07.781Z,97844.69
2024-03-05T06:16:34.805Z,97852.94
2024-03-05T06:19:01.519Z,97848.94
2024-03-05T06:21:28.314Z,97859.59
2024-03-05T06:23:54.952Z,97874.75
2024-03-05T06:26:21.594Z,97875.56
2024-03-05T06:28:48.283Z,97875.56
2024-03-05T06:31:15.172Z,97883.00
2024-03-05T06:33:42.223Z,97889.94
2024-03-05T06:36:08.925Z,97884.59
2024-03-05T06:38:35.827Z,97884.84
2024-03-05T06:41:03.167Z,97887.50
2024-03-05T06:43:39.231Z,97888.59
2024-03-05T06:46:06.141Z,97885.66
2024-03-05T06:48:34.578Z,97898.97
2024-03-05T06:51:06.294Z,97899.78
2024-03-05T06:53:51.492Z,97911.19
2024-03-05T06:56:36.966Z,97910.69
2024-03-05T06:59:05.153Z,97897.91
2024-03-05T07:01:33.616Z,97914.38
2024-03-05T07:04:00.833Z,97907.47
2024-03-05T07:06:27.488Z,97914.38
2024-03-05T07:08:56.462Z,97910.69
2024-03-05T07:11:24.006Z,97917.88
2024-03-05T07:13:51.087Z,97920.53
2024-03-05T07:16:18.632Z,97918.94
2024-03-05T07:18:46.297Z,97923.44
2024-03-05T07:21:12.930Z,97916.28
2024-03-05T07:23:41.162Z,97926.09
2024-03-05T07:26:08.417Z,97920.25
2024-03-05T07:28:35.421Z,97919.50
2024-03-05T07:31:03.250Z,97918.94
2024-03-05T07:33:30.399Z,97917.88
2024-03-05T07:35:57.063Z,97918.91
2024-03-05T07:38:23.681Z,97924.50
2024-03-05T07:40:50.456Z,97921.03
2024-03-05T07:43:17.631Z,97915.19
2024-03-05T07:45:46.208Z,97928.22
2024-03-05T07:48:15.104Z,97926.63
2024-03-05T07:50:42.387Z,97923.19
2024-03-05T07:53:09.661Z,97928.50
2024-03-05T07:55:45.986Z,97930.88
2024-03-05T07:58:13.916Z,97933.81
2024-03-05T08:00:40.737Z,97934.88
2024-03-05T08:03:07.560Z,97924.50
2024-03-05T08:05:36.167Z,97926.91
2024-03-05T08:08:03.718Z,97934.34
2024-03-05T08:10:30.725Z,97937.81
2024-03-05T08:12:57.462Z,97937.00
2024-03-05T08:15:26.011Z,97937.81
2024-03-05T08:17:53.209Z,97937.81
2024-03-05T08:20:20.936Z,97942.88
2024-03-05T08:22:48.056Z,97934.88
2024-03-05T08:25:18.947Z,97944.72
2024-03-05T08:27:46.585Z,97940.22
2024-03-05T08:30:18.698Z,97937.81
2024-03-05T08:32:45.540Z,97943.66
2024-03-05T08:35:15.133Z,97938.34
2024-03-05T08:37:42.592Z,97936.72
2024-03-05T08:40:29.148Z,97947.38
2024-03-05T08:42:56.694Z,97946.88
2024-03-05T08:45:25.059Z,97944.72
2024-03-05T08:47:53.277Z,97941.00
2024-03-05T08:50:20.124Z,97949.50
2024-03-05T08:52:46.839Z,97949.25
2024-03-05T08:55:14.284Z,97947.13
2024-03-05T08:57:43.763Z,97946.84
2024-03-05T09:00:31.977Z,97939.41
2024-03-05T09:03:08.770Z,97951.09
2024-03-05T09:05:37.111Z,97948.44
2024-03-05T09:08:04.306Z,97950.31
2024-03-05T09:10:31.674Z,97949.53
2024-03-05T09:12:59.700Z,97952.19
2024-03-05T09:15:27.118Z,97953.22
2024-03-05T09:17:53.924Z,97954.84
2024-03-05T09:20:20.612Z,97948.44
2024-03-05T09:22:47.785Z,97953.78
2024-03-05T09:25:15.338Z,97953.78
2024-03-05T09:27:43.557Z,97952.97
2024-03-05T09:30:11.023Z,97947.63
2024-03-05T09:32:37.843Z,97951.09
2024-03-05T09:35:10.122Z,97951.09
2024-03-05T09:37:37.535Z,97950.03
2024-03-05T09:40:07.311Z,97949.50
2024-03-05T09:42:34.420Z,97952.44
2024-03-05T09:45:06.904Z,97947.13
2024-03-05T09:47:37.187Z,97950.31
2024-03-05T09:50:05.110Z,97950.59
2024-03-05T09:52:32.608Z,97945.25
2024-03-05T09:55:00.923Z,97952.16
2024-03-05T09:57:29.837Z,97945.81
2024-03-05T09:59:57.105Z,97941.81
2024-03-05T10:02:25.885Z,97947.94
2024-03-05T10:04:55.090Z,97949.78
2024-03-05T10:07:28.450Z,97950.59
2024-03-05T10:10:14.278Z,97951.38
2024-03-05T10:12:41.162Z,97955.94
2024-03-05T10:15:30.383Z,97961.25
2024-03-05T10:17:58.080Z,97963.91
2024-03-05T10:20:26.522Z,97957.78
2024-03-05T10:22:53.872Z,97964.69
2024-03-05T10:25:21.363Z,97958.06
2024-03-05T10:27:48.355Z,97967.09
2024-03-05T10:30:25.245Z,97959.09
2024-03-05T10:33:00.574Z,97967.09
2024-03-05T10:35:28.066Z,97958.31
2024-03-05T10:37:59.237Z,97961.75
2024-03-05T10:40:26.330Z,97956.44
2024-03-05T10:42:53.895Z,97960.72
2024-03-05T10:45:23.183Z,97959.94
2024-03-05T10:47:50.679Z,97970.34
2024-03-05T10:50:18.583Z,97958.84
2024-03-05T10:52:45.536Z,97963.38
2024-03-05T10:55:12.669Z,97967.09
2024-03-05T10:58:02.637Z,97970.28
2024-03-05T11:00:29.246Z,97966.56
2024-03-05T11:02:59.021Z,97962.03
2024-03-05T11:05:26.884Z,97965.50
2024-03-05T11:07:54.506Z,97954.31
2024-03-05T11:10:21.586Z,97964.44
2024-03-05T11:12:48.468Z,97962.84
2024-03-05T11:15:15.113Z,97960.19
2024-03-05T11:17:43.556Z,97958.56
2024-03-05T11:20:13.574Z,97958.56
2024-03-05T11:22:45.887Z,97961.84
2024-03-05T11:25:32.045Z,97965.03
2024-03-05T11:28:01.549Z,97966.34
2024-03-05T11:30:30.052Z,98000.44
2024-03-05T11:32:56.713Z,98004.81
2024-03-05T11:35:25.855Z,97998.91
2024-03-05T11:37:53.541Z,97996.75
2024-03-05T11:40:24.492Z,97993.72
2024-03-05T11:42:54.428Z,97987.44
2024-03-05T11:45:45.658Z,97987.06
2024-03-05T11:48:13.985Z,97982.91
2024-03-05T11:50:40.709Z,97982.81
2024-03-05T11:53:07.996Z,97960.84
2024-03-05T11:55:34.662Z,97955.03
2024-03-05T11:58:01.352Z,97948.91
2024-03-05T12:00:29.923Z,97947.03
2024-03-05T12:02:57.639Z,97935.63
2024-03-05T12:05:24.820Z,97944.63
2024-03-05T12:08:08.220Z,97946.94
2024-03-05T12:10:37.811Z,97945.13
2024-03-05T12:13:07.507Z,97971.53
2024-03-05T12:15:36.269Z,97978.78
2024-03-05T12:18:10.017Z,97973.84
2024-03-05T12:20:37.524Z,97942.31
2024-03-05T12:23:04.848Z,97943.69
2024-03-05T12:25:33.395Z,97941.16
2024-03-05T12:28:01.348Z,97937.84
2024-03-05T12:30:34.991Z,97942.31
2024-03-05T12:33:01.909Z,97941.41
2024-03-05T12:35:29.268Z,97937.97
2024-03-05T12:37:56.889Z,97935.44
2024-03-05T12:40:26.680Z,97933.72
2024-03-05T12:42:53.385Z,97935.13
2024-03-05T12:45:20.218Z,97934.34
2024-03-05T12:47:56.592Z,97945.00
2024-03-05T12:50:23.462Z,97938.16
2024-03-05T12:53:01.532Z,97945.91
2024-03-05T12:55:29.181Z,97969.22
2024-03-05T12:58:08.694Z,97966.97
2024-03-05T13:00:35.924Z,97966.34
2024-03-05T13:03:05.664Z,97940.22
2024-03-05T13:05:35.746Z,97947.97
2024-03-05T13:08:02.558Z,97952.16
2024-03-05T13:10:29.265Z,97954.91
2024-03-05T13:12:56.554Z,97950.88
2024-03-05T13:15:23.182Z,97951.25
2024-03-05T13:17:51.966Z,97946.38
2024-03-05T13:20:21.817Z,97949.50
2024-03-05T13:22:55.414Z,97948.25
2024-03-05T13:25:24.950Z,97950.31
2024-03-05T13:27:54.472Z,97942.28
2024-03-05T13:30:21.941Z,97950.09
2024-03-05T13:32:49.275Z,97944.41
2024-03-05T13:35:16.707Z,97977.97
2024-03-05T13:37:49.079Z,97980.53
2024-03-05T13:40:22.423Z,97990.13
2024-03-05T13:42:49.436Z,97965.09
2024-03-05T13:45:19.679Z,97965.31
2024-03-05T13:47:47.061Z,97953.22
2024-03-05T13:50:17.441Z,97949.03
2024-03-05T13:52:45.066Z,97948.16
2024-03-05T13:55:12.793Z,97953.56
2024-03-05T13:57:39.496Z,97957.91
2024-03-05T14:00:08.955Z,97958.44
2024-03-05T14:02:36.825Z,97960.31
2024-03-05T14:05:04.505Z,97952.97
2024-03-05T14:07:32.037Z,97955.09
2024-03-05T14:09:58.941Z,97967.34
2024-03-05T14:12:25.730Z,97966.25
2024-03-05T14:14:52.427Z,97957.53
2024-03-05T14:17:19.170Z,97963.44
2024-03-05T14:19:46.641Z,97961.69
2024-03-05T14:22:14.064Z,97963.78
2024-03-05T14:24:40.724Z,97963.94
2024-03-05T14:27:07.570Z,97961.41
2024-03-05T14:29:34.305Z,97960.47
2024-03-05T14:32:01.264Z,97959.22
2024-03-05T14:34:28.406Z,97966.50
2024-03-05T14:36:55.141Z,97999.09
2024-03-05T14:39:22.531Z,98000.97
2024-03-05T14:41:49.309Z,97999.88
2024-03-05T14:44:16.435Z,98006.97
2024-03-05T14:46:43.244Z,98011.81
2024-03-05T14:49:10.070Z,98009.69
2024-03-05T14:51:36.779Z,98004.84
2024-03-05T14:54:04.261Z,98013.00
2024-03-05T14:56:31.669Z,98006.97
2024-03-05T14:58:58.547Z,97999.69
2024-03-05T15:01:26.929Z,98009.16
2024-03-05T15:03:53.682Z,98015.25
2024-03-05T15:06:20.878Z,97977.84
2024-03-05T15:08:47.686Z,97983.63
2024-03-05T15:11:14.546Z,97976.84
2024-03-05T15:13:41.355Z,97975.59
2024-03-05T15:16:09.115Z,97970.84
2024-03-05T15:18:36.553Z,97969.63
2024-03-05T15:21:15.084Z,97966.69
2024-03-05T15:23:42.466Z,97967.91
2024-03-05T15:26:10.513Z,97980.06
2024-03-05T15:28:38.159Z,97981.72
2024-03-05T15:31:10.090Z,97982.31
2024-03-05T15:33:40.262Z,97979.81
2024-03-05T15:36:07.347Z,97984.75
2024-03-05T15:38:34.489Z,97985.66
2024-03-05T15:41:01.868Z,97991.59
2024-03-05T15:43:28.792Z,97986.75
2024-03-05T15:45:55.475Z,97988.84
2024-03-05T15:48:22.720Z,97992.88
2024-03-05T15:50:49.487Z,97997.25
2024-03-05T15:53:17.351Z,98003.72
2024-03-05T15:55:46.607Z,97999.56
2024-03-05T15:58:32.455Z,97999.97
2024-03-05T16:00:59.475Z,98016.41
2024-03-05T16:03:26.470Z,98010.88
2024-03-05T16:06:00.741Z,98006.19
2024-03-05T16:08:33.525Z,98009.50
2024-03-05T16:11:00.703Z,98011.06
2024-03-05T16:13:31.247Z,98023.19
2024-03-05T16:15:58.297Z,98019.69
2024-03-05T16:18:25.727Z,98025.81
2024-03-05T16:20:53.806Z,98026.00
2024-03-05T16:23:20.774Z,98029.72
2024-03-05T16:25:47.759Z,98028.94
2024-03-05T16:28:15.217Z,98036.84
2024-03-05T16:30:42.618Z,98031.34
2024-03-05T16:33:09.540Z,98022.44
2024-03-05T16:35:37.196Z,98032.34
2024-03-05T16:38:07.856Z,98029.66
2024-03-05T16:40:39.310Z,98037.97
2024-03-05T16:43:07.338Z,98033.53
2024-03-05T16:45:35.327Z,98039.25
2024-03-05T16:48:06.459Z,98045.00
2024-03-05T16:50:33.567Z,98040.25
2024-03-05T16:53:00.364Z,98043.13
2024-03-05T16:55:27.626Z,98044.88
2024-03-05T16:58:00.565Z,98043.63
2024-03-05T17:00:38.115Z,98046.34
2024-03-05T17:03:10.238Z,98059.88
2024-03-05T17:05:40.307Z,98053.16
2024-03-05T17:08:11.606Z,98048.63
2024-03-05T17:10:40.973Z,98053.06
2024-03-05T17:13:12.508Z,98055.31
2024-03-05T17:15:39.598Z,98057.53
2024-03-05T17:18:07.106Z,98059.94
2024-03-05T17:20:34.506Z,98059.78
2024-03-05T17:23:03.495Z,98059.34
2024-03-05T17:25:34.773Z,98066.44
2024-03-05T17:31:22.161Z,98066.78
2024-03-05T17:33:48.806Z,98070.94
2024-03-05T17:36:15.529Z,98076.66
2024-03-05T17:38:43.265Z,98069.97
2024-03-05T17:41:09.998Z,98076.81
2024-03-05T17:43:37.085Z,98087.94
2024-03-05T17:46:05.952Z,98081.13
2024-03-05T17:48:32.874Z,98085.25
2024-03-05T17:50:59.801Z,98084.78
2024-03-05T17:53:26.761Z,98088.13
2024-03-05T17:55:53.821Z,98091.00
2024-03-05T17:58:20.915Z,98086.25
2024-03-05T18:00:48.182Z,98091.47
2024-03-05T18:03:15.506Z,98090.53
2024-03-05T18:05:46.504Z,98090.34
2024-03-05T18:08:14.078Z,98094.50
2024-03-05T18:10:41.059Z,98096.72
2024-03-05T18:13:08.215Z,98106.06
2024-03-05T18:15:35.524Z,98110.53
2024-03-05T18:18:03.591Z,98110.31
2024-03-05T18:20:30.609Z,98109.06
2024-03-05T18:23:01.288Z,98110.81
2024-03-05T18:25:35.569Z,98108.44
2024-03-05T18:28:03.336Z,98104.78
2024-03-05T18:30:30.009Z,98106.19
2024-03-05T18:32:57.030Z,98107.44
2024-03-05T18:35:25.775Z,98101.91
2024-03-05T18:37:52.643Z,98110.63
2024-03-05T18:40:19.514Z,98110.75
2024-03-05T18:42:49.634Z,98115.66
2024-03-05T18:45:16.950Z,98109.63
2024-03-05T18:47:58.447Z,98112.31
2024-03-05T18:50:30.113Z,98115.66
2024-03-05T18:53:02.406Z,98120.72
2024-03-05T18:55:31.405Z,98115.13
2024-03-05T18:57:58.765Z,98123.06
2024-03-05T19:00:26.864Z,98120.06
2024-03-05T19:02:53.574Z,98116.25
2024-03-05T19:05:20.641Z,98113.22
2024-03-05T19:07:47.745Z,98111.16
2024-03-05T19:10:14.455Z,98112.69
2024-03-05T19:12:41.161Z,98112.03
2024-03-05T19:15:08.439Z,98111.03
2024-03-05T19:17:35.449Z,98114.38
2024-03-05T19:20:02.806Z,98114.66
2024-03-05T19:22:30.271Z,98116.72
2024-03-05T19:25:00.161Z,98115.91
2024-03-05T19:27:26.930Z,98110.38
2024-03-05T19:29:55.433Z,98110.69
2024-03-05T19:32:22.121Z,98113.19
2024-03-05T19:34:49.189Z,98115.25
2024-03-05T19:37:16.527Z,98123.00
2024-03-05T19:39:43.170Z,98121.41
2024-03-05T19:42:11.582Z,98127.53
2024-03-05T19:44:38.533Z,98127.03
2024-03-05T19:47:05.287Z,98131.47
2024-03-05T19:49:32.110Z,98124.00
2024-03-05T19:51:59.716Z,98133.19
2024-03-05T19:54:29.358Z,98137.13
2024-03-05T19:56:57.152Z,98131.53
2024-03-05T19:59:23.941Z,98136.75
2024-03-05T20:01:50.744Z,98131.97
2024-03-05T20:04:17.788Z,98131.75
2024-03-05T20:06:44.806Z,98141.56
2024-03-05T20:09:14.512Z,98135.97
2024-03-05T20:11:41.620Z,98138.16
2024-03-05T20:14:09.998Z,98132.63
2024-03-05T20:16:37.075Z,98132.44
2024-03-05T20:19:03.732Z,98129.88
2024-03-05T20:21:30.472Z,98121.28
2024-03-05T20:23:57.731Z,98125.88
2024-03-05T20:26:24.630Z,98124.09
2024-03-05T20:28:53.701Z,98128.19
2024-03-05T20:31:22.955Z,98130.38
2024-03-05T20:33:49.951Z,98131.31
2024-03-05T20:36:19.637Z,98128.13
2024-03-05T20:38:46.685Z,98130.94
2024-03-05T20:41:14.555Z,98138.34
2024-03-05T20:43:41.534Z,98143.72
2024-03-05T20:46:10.983Z,98138.34
2024-03-05T20:48:38.205Z,98146.19
2024-03-05T20:51:05.212Z,98137.97
2024-03-05T20:53:31.918Z,98148.50
2024-03-05T20:55:59.304Z,98143.44
2024-03-05T20:58:26.044Z,98147.03
2024-03-05T21:00:52.776Z,98154.78
2024-03-05T21:03:22.738Z,98159.66
2024-03-05T21:05:49.920Z,98151.44
2024-03-05T21:08:16.636Z,98155.78
2024-03-05T21:10:44.775Z,98159.59
2024-03-05T21:13:11.550Z,98171.72
2024-03-05T21:15:38.353Z,98165.34
2024-03-05T21:18:09.782Z,98163.28
2024-03-05T21:20:37.549Z,98160.06
2024-03-05T21:23:05.505Z,98162.56
2024-03-05T21:25:40.024Z,98156.50
2024-03-05T21:28:16.492Z,98164.84
2024-03-05T21:30:43.667Z,98158.97
2024-03-05T21:33:10.358Z,98175.69
2024-03-05T21:35:37.018Z,98163.47
2024-03-05T21:38:03.678Z,98168.03
2024-03-05T21:40:30.326Z,98172.91
2024-03-05T21:42:57.075Z,98177.59
2024-03-05T21:45:23.704Z,98174.63
2024-03-05T21:47:50.885Z,98180.88
2024-03-05T21:50:17.709Z,98185.75
2024-03-05T21:52:47.744Z,98182.56
2024-03-05T21:55:16.377Z,98181.25
2024-03-05T21:57:43.507Z,98184.25
2024-03-05T22:00:12.447Z,98184.66
2024-03-05T22:02:43.063Z,98188.41
2024-03-05T22:05:10.563Z,98192.78
2024-03-05T22:07:37.318Z,98191.78
2024-03-05T22:10:07.161Z,98193.19
2024-03-05T22:12:41.112Z,98190.00
2024-03-05T22:15:09.264Z,98193.28
2024-03-05T22:17:36.778Z,98189.28
2024-03-05T22:20:03.816Z,98186.34
2024-03-05T22:22:30.690Z,98180.47
2024-03-05T22:24:57.814Z,98183.25
2024-03-05T22:27:24.473Z,98180.06
2024-03-05T22:29:51.332Z,98183.34
2024-03-05T22:32:18.081Z,98180.94
2024-03-05T22:34:44.817Z,98181.25
2024-03-05T22:37:11.508Z,98176.16
2024-03-05T22:39:38.914Z,98189.41
2024-03-05T22:42:05.609Z,98193.44
2024-03-05T22:44:32.304Z,98187.88
2024-03-05T22:46:59.039Z,98196.53
2024-03-05T22:49:25.754Z,98200.84
2024-03-05T22:51:52.391Z,98194.72
2024-03-05T22:54:19.214Z,98189.13
2024-03-05T22:56:51.795Z,98196.69
2024-03-05T22:59:20.176Z,98191.91
2024-03-05T23:01:47.288Z,98201.03
2024-03-05T23:04:14.024Z,98195.66
2024-03-05T23:06:40.708Z,98200.59
2024-03-05T23:09:08.071Z,98196.03
2024-03-05T23:11:34.941Z,98202.00
2024-03-05T23:14:01.733Z,98192.91
2024-03-05T23:16:28.423Z,98196.16
2024-03-05T23:18:55.064Z,98198.56
2024-03-05T23:21:21.695Z,98202.41
2024-03-05T23:23:50.566Z,98206.19
2024-03-05T23:26:19.245Z,98210.00
2024-03-05T23:28:46.049Z,98215.63
2024-03-05T23:31:12.712Z,98209.25
2024-03-05T23:33:39.406Z,98215.97
2024-03-05T23:36:06.473Z,98206.34
2024-03-05T23:38:33.161Z,98211.75
2024-03-05T23:41:00.341Z,98207.47
2024-03-05T23:43:26.939Z,98212.81
2024-03-05T23:45:55.567Z,98207.75
2024-03-05T23:48:22.385Z,98216.88
2024-03-05T23:50:49.393Z,98222.53
2024-03-05T23:53:17.016Z,98222.31
2024-03-05T23:55:44.968Z,98227.16
2024-03-05T23:58:11.644Z,98227.44
